createdAt,value
2022-07-27T00:01:38.448Z,101781.66
2022-07-27T00:04:07.920Z,101787.28
2022-07-27T00:06:37.220Z,101785.81
2022-07-27T00:09:06.313Z,101793.84
2022-07-27T00:11:36.325Z,101784.84
2022-07-27T00:14:05.061Z,101781.03
2022-07-27T00:16:34.014Z,101787.69
2022-07-27T00:19:03.025Z,101788.53
2022-07-27T00:21:31.413Z,101781.94
2022-07-27T00:24:00.181Z,101779.53
2022-07-27T00:26:28.598Z,101776.25
2022-07-27T00:28:59.802Z,101774.31
2022-07-27T00:31:28.411Z,101768.78
2022-07-27T00:33:57.372Z,101771.22
2022-07-27T00:36:25.855Z,101770.94
2022-07-27T00:38:54.367Z,101775.16
2022-07-27T00:41:23.080Z,101766.47
2022-07-27T00:43:54.589Z,101768.56
2022-07-27T00:46:25.729Z,101769.69
2022-07-27T00:48:55.583Z,101768.81
2022-07-27T00:51:25.008Z,101762.91
2022-07-27T00:53:55.082Z,101765.16
2022-07-27T00:56:24.246Z,101761.53
2022-07-27T00:58:54.889Z,101759.63
2022-07-27T01:01:25.186Z,101759.41
2022-07-27T01:03:54.798Z,101750.56
2022-07-27T01:06:26.951Z,101749.84
2022-07-27T01:09:13.477Z,101744.41
2022-07-27T01:11:42.552Z,101746.81
2022-07-27T01:14:13.985Z,101749.91
2022-07-27T01:16:44.914Z,101744.84
2022-07-27T01:19:15.289Z,101739.97
2022-07-27T01:21:48.797Z,101737.91
2022-07-27T01:24:17.512Z,101738.34
2022-07-27T01:26:47.152Z,101749.22
2022-07-27T01:29:16.754Z,101746.91
2022-07-27T01:31:45.407Z,101739.03
2022-07-27T01:34:16.002Z,101738.41
2022-07-27T01:36:46.136Z,101735.22
2022-07-27T01:39:17.607Z,101735.22
2022-07-27T01:41:47.682Z,101738.53
2022-07-27T01:44:16.486Z,101735.03
2022-07-27T01:46:45.641Z,101737.03
2022-07-27T01:49:14.535Z,101734.38
2022-07-27T01:51:43.521Z,101737.03
2022-07-27T01:54:12.232Z,101741.31
2022-07-27T01:56:42.991Z,101731.97
2022-07-27T01:59:15.874Z,101741.34
2022-07-27T02:01:45.490Z,101737.53
2022-07-27T02:04:14.462Z,101733.41
2022-07-27T02:06:42.956Z,101738.63
2022-07-27T02:09:11.941Z,101736.38
2022-07-27T02:12:00.484Z,101732.88
2022-07-27T02:14:29.009Z,101741.03
2022-07-27T02:16:57.661Z,101737.53
2022-07-27T02:19:28.500Z,101735.97
2022-07-27T02:21:57.074Z,101735.22
2022-07-27T02:24:25.621Z,101735.22
2022-07-27T02:26:55.909Z,101729.28
2022-07-27T02:29:24.574Z,101726.63
2022-07-27T02:31:53.244Z,101728.69
2022-07-27T02:34:21.779Z,101715.50
2022-07-27T02:36:50.517Z,101719.75
2022-07-27T02:39:19.118Z,101716.78
2022-07-27T02:41:49.415Z,101718.06
2022-07-27T02:44:20.603Z,101706.19
2022-07-27T02:46:49.408Z,101712.47
2022-07-27T02:49:17.935Z,101709.06
2022-07-27T02:51:50.758Z,101706.41
2022-07-27T02:54:19.731Z,101718.09
2022-07-27T02:56:48.162Z,101711.44
2022-07-27T02:59:18.253Z,101710.47
2022-07-27T03:01:50.852Z,101707.91
2022-07-27T03:04:20.025Z,101712.69
2022-07-27T03:06:49.766Z,101703.03
2022-07-27T03:09:18.742Z,101707.75
2022-07-27T03:11:47.305Z,101715.59
2022-07-27T03:14:15.712Z,101717.19
2022-07-27T03:16:44.288Z,101719.72
2022-07-27T03:19:14.721Z,101724.41
2022-07-27T03:21:43.566Z,101721.00
2022-07-27T03:24:12.055Z,101717.63
2022-07-27T03:26:40.798Z,101719.19
2022-07-27T03:29:09.501Z,101714.84
2022-07-27T03:31:38.564Z,101718.34
2022-07-27T03:34:09.722Z,101721.50
2022-07-27T03:36:39.659Z,101717.88
2022-07-27T03:39:08.253Z,101726.91
2022-07-27T03:41:37.079Z,101720.94
2022-07-27T03:44:06.098Z,101727.81
2022-07-27T03:46:34.679Z,101730.00
2022-07-27T03:49:03.237Z,101728.31
2022-07-27T03:51:45.038Z,101732.94
2022-07-27T03:54:13.864Z,101728.81
2022-07-27T03:56:42.577Z,101729.47
2022-07-27T03:59:11.703Z,101725.13
2022-07-27T04:01:40.582Z,101727.66
2022-07-27T04:04:09.504Z,101723.78
2022-07-27T04:06:38.055Z,101726.13
2022-07-27T04:09:09.443Z,101715.00
2022-07-27T04:11:43.527Z,101713.22
2022-07-27T04:14:21.906Z,101709.00
2022-07-27T04:16:50.585Z,101710.59
2022-07-27T04:19:19.342Z,101716.56
2022-07-27T04:21:47.786Z,101711.66
2022-07-27T04:24:17.757Z,101713.56
2022-07-27T04:26:52.084Z,101710.50
2022-07-27T04:29:21.596Z,101711.13
2022-07-27T04:31:50.609Z,101709.00
2022-07-27T04:34:20.184Z,101714.75
2022-07-27T04:36:50.279Z,101708.38
2022-07-27T04:39:21.022Z,101708.06
2022-07-27T04:41:50.125Z,101705.94
2022-07-27T04:44:19.699Z,101701.47
2022-07-27T04:46:48.426Z,101704.78
2022-07-27T04:49:17.346Z,101705.63
2022-07-27T04:51:46.525Z,101703.81
2022-07-27T04:54:15.038Z,101698.19
2022-07-27T04:56:45.825Z,101704.47
2022-07-27T04:59:14.976Z,101706.91
2022-07-27T05:01:44.416Z,101704.13
2022-07-27T05:04:13.137Z,101703.50
2022-07-27T05:06:41.811Z,101708.59
2022-07-27T05:09:10.591Z,101701.47
2022-07-27T05:11:39.325Z,101700.72
2022-07-27T05:14:09.195Z,101698.94
2022-07-27T05:16:40.796Z,101714.22
2022-07-27T05:19:09.963Z,101705.41
2022-07-27T05:21:39.315Z,101718.44
2022-07-27T05:24:08.516Z,101708.91
2022-07-27T05:26:37.088Z,101708.25
2022-07-27T05:29:05.373Z,101706.53
2022-07-27T05:31:35.893Z,101709.28
2022-07-27T05:34:04.666Z,101710.78
2022-07-27T05:36:33.065Z,101702.25
2022-07-27T05:39:01.762Z,101704.59
2022-07-27T05:41:30.121Z,101708.97
2022-07-27T05:43:58.677Z,101708.00
2022-07-27T05:46:32.459Z,101700.53
2022-07-27T05:49:03.094Z,101707.31
2022-07-27T05:51:32.488Z,101706.03
2022-07-27T05:54:01.628Z,101706.53
2022-07-27T05:56:30.094Z,101699.69
2022-07-27T05:59:03.670Z,101700.97
2022-07-27T06:01:36.307Z,101707.84
2022-07-27T06:04:07.669Z,101705.59
2022-07-27T06:06:54.100Z,101694.72
2022-07-27T06:09:22.585Z,101706.59
2022-07-27T06:11:51.594Z,101696.59
2022-07-27T06:14:20.573Z,101700.72
2022-07-27T06:16:49.227Z,101694.81
2022-07-27T06:19:19.493Z,101690.00
2022-07-27T06:21:53.365Z,101692.28
2022-07-27T06:24:22.624Z,101692.19
2022-07-27T06:26:51.935Z,101695.69
2022-07-27T06:29:20.527Z,101694.84
2022-07-27T06:31:49.594Z,101696.53
2022-07-27T06:34:21.025Z,101696.31
2022-07-27T06:36:53.421Z,101691.00
2022-07-27T06:39:22.645Z,101692.22
2022-07-27T06:41:54.856Z,101680.25
2022-07-27T06:44:26.608Z,101682.19
2022-07-27T06:46:55.471Z,101687.03
2022-07-27T06:49:25.621Z,101680.66
2022-07-27T06:51:54.008Z,101679.34
2022-07-27T06:54:22.537Z,101677.53
2022-07-27T06:56:51.053Z,101679.97
2022-07-27T06:59:19.410Z,101684.69
2022-07-27T07:01:48.927Z,101681.28
2022-07-27T07:04:17.932Z,101672.25
2022-07-27T07:06:54.971Z,101670.06
2022-07-27T07:09:23.767Z,101660.84
2022-07-27T07:11:52.718Z,101664.13
2022-07-27T07:14:21.232Z,101664.22
2022-07-27T07:16:50.897Z,101659.13
2022-07-27T07:19:19.760Z,101662.53
2022-07-27T07:21:48.814Z,101659.25
2022-07-27T07:24:19.197Z,101653.31
2022-07-27T07:26:47.602Z,101656.94
2022-07-27T07:29:16.899Z,101653.06
2022-07-27T07:31:45.721Z,101650.41
2022-07-27T07:34:14.354Z,101651.13
2022-07-27T07:36:42.705Z,101659.47
2022-07-27T07:39:11.984Z,101658.25
2022-07-27T07:41:42.131Z,101650.78
2022-07-27T07:44:10.454Z,101654.75
2022-07-27T07:46:41.564Z,101650.19
2022-07-27T07:49:13.769Z,101650.19
2022-07-27T07:51:42.328Z,101648.91
2022-07-27T07:54:11.624Z,101651.56
2022-07-27T07:56:41.535Z,101646.94
2022-07-27T07:59:12.930Z,101653.94
2022-07-27T08:01:42.559Z,101649.75
2022-07-27T08:04:11.502Z,101647.19
2022-07-27T08:06:41.614Z,101648.25
2022-07-27T08:09:11.877Z,101646.81
2022-07-27T08:11:42.430Z,101652.84
2022-07-27T08:14:11.238Z,101649.31
2022-07-27T08:16:40.304Z,101657.69
2022-07-27T08:19:09.463Z,101651.84
2022-07-27T08:21:38.293Z,101656.88
2022-07-27T08:24:10.660Z,101650.66
2022-07-27T08:26:39.213Z,101639.84
2022-07-27T08:29:13.784Z,101639.44
2022-07-27T08:31:51.148Z,101631.22
2022-07-27T08:34:22.221Z,101630.53
2022-07-27T08:36:50.730Z,101633.50
2022-07-27T08:40:05.554Z,101636.34
2022-07-27T08:42:10.879Z,101634.91
2022-07-27T08:44:43.232Z,101632.31
2022-07-27T08:47:12.497Z,101628.66
2022-07-27T08:49:43.857Z,101638.53
2022-07-27T08:52:13.439Z,101631.75
2022-07-27T08:54:43.519Z,101632.13
2022-07-27T08:57:12.514Z,101630.88
2022-07-27T08:59:42.533Z,101628.66
2022-07-27T09:02:15.542Z,101628.53
2022-07-27T09:04:46.906Z,101638.06
2022-07-27T09:07:32.349Z,101638.56
2022-07-27T09:10:01.904Z,101640.38
2022-07-27T09:12:31.730Z,101637.69
2022-07-27T09:15:12.181Z,101633.13
2022-07-27T09:17:50.535Z,101640.72
2022-07-27T09:20:21.375Z,101635.53
2022-07-27T09:22:52.724Z,101637.78
2022-07-27T09:25:52.180Z,101631.13
2022-07-27T09:28:12.971Z,101630.00
2022-07-27T09:30:45.336Z,101635.47
2022-07-27T09:33:17.058Z,101628.47
2022-07-27T09:35:46.798Z,101627.50
2022-07-27T09:38:20.012Z,101624.94
2022-07-27T09:40:49.962Z,101626.53
2022-07-27T09:44:19.772Z,101622.72
2022-07-27T09:46:09.029Z,101622.63
2022-07-27T09:48:37.816Z,101621.63
2022-07-27T09:51:55.789Z,101606.84
2022-07-27T09:54:00.095Z,101612.22
2022-07-27T09:56:30.355Z,101616.44
2022-07-27T09:58:59.789Z,101614.16
2022-07-27T10:01:33.503Z,101607.44
2022-07-27T10:04:03.876Z,101611.97
2022-07-27T10:06:47.732Z,101614.91
2022-07-27T10:09:21.658Z,101617.72
2022-07-27T10:11:51.325Z,101623.63
2022-07-27T10:14:20.001Z,101619.84
2022-07-27T10:16:54.098Z,101623.38
2022-07-27T10:19:29.541Z,101623.63
2022-07-27T10:21:58.073Z,101620.53
2022-07-27T10:24:29.607Z,101621.94
2022-07-27T10:26:58.260Z,101618.44
2022-07-27T10:29:27.389Z,101619.81
2022-07-27T10:32:02.241Z,101613.63
2022-07-27T10:34:39.233Z,101614.88
2022-07-27T10:37:12.954Z,101612.06
2022-07-27T10:39:44.339Z,101616.69
2022-07-27T10:42:30.658Z,101621.97
2022-07-27T10:45:02.541Z,101616.91
2022-07-27T10:47:36.479Z,101610.16
2022-07-27T10:50:30.172Z,101608.31
2022-07-27T10:53:05.204Z,101604.44
2022-07-27T10:55:47.965Z,101602.13
2022-07-27T10:58:51.386Z,101600.63
2022-07-27T11:01:24.654Z,101598.91
2022-07-27T11:03:57.573Z,101597.56
2022-07-27T11:06:36.261Z,101598.84
2022-07-27T11:12:01.756Z,101592.22
2022-07-27T11:14:31.923Z,101600.63
2022-07-27T11:17:24.391Z,101593.69
2022-07-27T11:20:00.494Z,101586.38
2022-07-27T11:25:23.686Z,101601.69
2022-07-27T11:27:53.335Z,101594.66
2022-07-27T11:30:27.448Z,101590.75
2022-07-27T11:32:57.307Z,101593.84
2022-07-27T11:35:27.052Z,101589.44
2022-07-27T11:38:03.860Z,101593.00
2022-07-27T11:43:39.119Z,101581.16
2022-07-27T11:46:25.288Z,101582.56
2022-07-27T11:49:06.474Z,101580.88
2022-07-27T11:51:39.566Z,101577.00
2022-07-27T11:54:10.497Z,101569.78
2022-07-27T11:56:40.856Z,101580.06
2022-07-27T11:59:16.106Z,101573.22
2022-07-27T12:01:49.185Z,101574.25
2022-07-27T12:04:23.939Z,101571.78
2022-07-27T12:07:05.252Z,101563.72
2022-07-27T12:09:37.922Z,101567.41
2022-07-27T12:12:17.927Z,101561.72
2022-07-27T12:14:49.654Z,101556.38
2022-07-27T12:17:29.299Z,101555.53
2022-07-27T12:20:00.853Z,101558.03
2022-07-27T12:22:37.667Z,101555.50
2022-07-27T12:25:16.082Z,101546.72
2022-07-27T12:27:56.895Z,101555.03
2022-07-27T12:30:34.417Z,101552.88
2022-07-27T12:33:04.775Z,101548.63
2022-07-27T12:35:38.122Z,101545.34
2022-07-27T12:38:11.309Z,101542.84
2022-07-27T12:40:47.344Z,101541.69
2022-07-27T12:43:18.719Z,101541.06
2022-07-27T12:45:49.464Z,101538.16
2022-07-27T12:48:20.052Z,101529.69
2022-07-27T12:50:58.222Z,101525.78
2022-07-27T12:53:30.264Z,101531.84
2022-07-27T12:56:00.870Z,101531.44
2022-07-27T12:58:29.760Z,101527.78
2022-07-27T13:01:00.080Z,101535.31
2022-07-27T13:03:28.773Z,101532.78
2022-07-27T13:05:57.375Z,101532.50
2022-07-27T13:08:25.831Z,101535.47
2022-07-27T13:10:59.973Z,101531.25
2022-07-27T13:13:28.616Z,101531.09
2022-07-27T13:15:57.265Z,101521.69
2022-07-27T13:18:25.754Z,101533.38
2022-07-27T13:20:55.525Z,101524.78
2022-07-27T13:23:24.662Z,101525.34
2022-07-27T13:25:53.116Z,101530.41
2022-07-27T13:28:23.162Z,101525.38
2022-07-27T13:30:52.061Z,101527.72
2022-07-27T13:33:20.441Z,101530.38
2022-07-27T13:35:53.095Z,101529.72
2022-07-27T13:38:31.906Z,101522.72
2022-07-27T13:41:00.721Z,101530.56
2022-07-27T13:43:30.693Z,101526.16
2022-07-27T13:45:59.180Z,101528.03
2022-07-27T13:48:28.356Z,101521.50
2022-07-27T13:50:56.890Z,101521.78
2022-07-27T13:53:25.450Z,101523.97
2022-07-27T13:55:53.960Z,101523.00
2022-07-27T13:58:24.064Z,101513.13
2022-07-27T14:00:54.341Z,101510.06
2022-07-27T14:03:23.386Z,101509.97
2022-07-27T14:05:54.084Z,101509.19
2022-07-27T14:08:23.351Z,101509.56
2022-07-27T14:10:51.770Z,101511.03
2022-07-27T14:13:21.881Z,101498.91
2022-07-27T14:15:54.854Z,101502.09
2022-07-27T14:18:31.152Z,101499.25
2022-07-27T14:21:01.928Z,101495.25
2022-07-27T14:23:31.225Z,101497.88
2022-07-27T14:26:01.142Z,101494.59
2022-07-27T14:28:31.694Z,101491.53
2022-07-27T14:31:01.055Z,101491.59
2022-07-27T14:33:37.045Z,101495.53
2022-07-27T14:36:06.842Z,101495.78
2022-07-27T14:38:36.971Z,101489.75
2022-07-27T14:41:06.132Z,101491.69
2022-07-27T14:43:34.854Z,101489.31
2022-07-27T14:46:04.310Z,101488.44
2022-07-27T14:49:04.564Z,101488.19
2022-07-27T14:51:22.500Z,101485.56
2022-07-27T14:53:50.922Z,101481.81
2022-07-27T14:56:19.575Z,101472.22
2022-07-27T14:58:48.255Z,101476.31
2022-07-27T15:01:17.397Z,101484.00
2022-07-27T15:03:48.066Z,101480.31
2022-07-27T15:06:17.716Z,101474.81
2022-07-27T15:08:46.364Z,101467.41
2022-07-27T15:11:15.077Z,101469.00
2022-07-27T15:13:43.402Z,101473.97
2022-07-27T15:16:12.696Z,101478.16
2022-07-27T15:18:41.517Z,101478.53
2022-07-27T15:21:12.734Z,101478.34
2022-07-27T15:23:43.454Z,101480.69
2022-07-27T15:26:12.826Z,101471.75
2022-07-27T15:28:41.937Z,101464.69
2022-07-27T15:31:10.891Z,101455.53
2022-07-27T15:33:40.121Z,101454.81
2022-07-27T15:36:08.910Z,101457.50
2022-07-27T15:38:39.472Z,101454.06
2022-07-27T15:41:08.762Z,101454.78
2022-07-27T15:43:42.105Z,101453.44
2022-07-27T15:46:11.805Z,101456.31
2022-07-27T15:48:43.345Z,101447.72
2022-07-27T15:51:11.895Z,101444.03
2022-07-27T15:53:41.946Z,101439.59
2022-07-27T15:56:10.258Z,101440.78
2022-07-27T15:58:38.702Z,101442.47
2022-07-27T16:01:08.837Z,101437.25
2022-07-27T16:03:40.672Z,101445.97
2022-07-27T16:06:09.126Z,101444.19
2022-07-27T16:08:37.460Z,101443.88
2022-07-27T16:11:08.141Z,101439.38
2022-07-27T16:13:37.293Z,101437.00
2022-07-27T16:16:25.020Z,101427.00
2022-07-27T16:18:54.077Z,101419.84
2022-07-27T16:21:24.709Z,101410.03
2022-07-27T16:23:55.592Z,101425.59
2022-07-27T16:26:27.406Z,101419.53
2022-07-27T16:29:00.393Z,101415.78
2022-07-27T16:31:31.114Z,101414.94
2022-07-27T16:34:00.673Z,101412.16
2022-07-27T16:36:29.319Z,101419.16
2022-07-27T16:38:57.717Z,101418.44
2022-07-27T16:41:28.468Z,101413.28
2022-07-27T16:43:57.027Z,101422.09
2022-07-27T16:46:25.579Z,101420.13
2022-07-27T16:48:54.082Z,101418.03
2022-07-27T16:51:22.719Z,101411.72
2022-07-27T16:53:51.218Z,101418.16
2022-07-27T16:56:19.876Z,101414.38
2022-07-27T16:59:48.102Z,101404.56
2022-07-27T17:06:36.554Z,101406.78
2022-07-27T17:29:19.008Z,101405.78
2022-07-27T17:55:20.505Z,101389.91
2022-07-27T18:06:14.563Z,101386.56
2022-07-27T18:16:53.448Z,101391.44
2022-07-27T18:19:48.123Z,101389.91
2022-07-27T18:22:34.155Z,101385.25
2022-07-27T18:25:52.859Z,101381.19
2022-07-27T18:28:48.899Z,101391.56
2022-07-27T18:32:02.862Z,101377.06
2022-07-27T18:38:12.227Z,101383.25
2022-07-27T18:41:00.643Z,101387.13
2022-07-27T18:43:54.871Z,101381.28
2022-07-27T18:49:44.639Z,101385.50
2022-07-27T18:56:07.320Z,101385.47
2022-07-27T18:58:53.421Z,101384.59
2022-07-27T19:01:54.100Z,101378.69
2022-07-27T19:04:43.730Z,101383.41
2022-07-27T19:07:53.265Z,101370.94
2022-07-27T19:17:24.258Z,101364.78
2022-07-27T19:20:16.356Z,101374.00
2022-07-27T19:23:03.372Z,101380.09
2022-07-27T19:25:45.449Z,101367.78
2022-07-27T19:28:31.131Z,101377.59
2022-07-27T19:31:23.189Z,101375.31
2022-07-27T19:34:21.580Z,101369.56
2022-07-27T19:37:35.496Z,101368.91
2022-07-27T19:45:09.412Z,101373.56
2022-07-27T20:13:13.026Z,101378.28
2022-07-27T20:16:35.402Z,101376.81
2022-07-27T20:19:54.320Z,101372.63
2022-07-27T20:23:10.174Z,101377.59
2022-07-27T20:33:28.664Z,101370.69
2022-07-27T20:40:11.130Z,101373.25
2022-07-27T20:43:21.909Z,101383.25
2022-07-27T20:46:52.915Z,101386.75
2022-07-27T20:57:29.744Z,101391.22
2022-07-27T21:01:07.810Z,101388.22
2022-07-27T21:04:08.233Z,101381.53
2022-07-27T21:08:09.426Z,101378.63
2022-07-27T21:15:38.947Z,101381.81
2022-07-27T21:54:07.009Z,101369.13
2022-07-27T22:04:43.439Z,101380.97
2022-07-27T22:07:16.772Z,101386.31
2022-07-27T22:10:27.984Z,101383.75
2022-07-27T22:13:11.080Z,101385.94
2022-07-27T22:15:50.885Z,101380.75
2022-07-27T22:18:25.342Z,101385.31
2022-07-27T22:21:21.624Z,101390.41
2022-07-27T22:24:35.413Z,101386.22
2022-07-27T22:27:33.404Z,101380.38
2022-07-27T22:30:41.740Z,101381.75
2022-07-27T22:33:19.273Z,101385.25
2022-07-27T22:35:57.656Z,101380.25
2022-07-27T22:38:43.167Z,101386.69
2022-07-27T22:41:39.806Z,101381.47
2022-07-27T22:44:20.539Z,101381.81
2022-07-27T22:47:02.171Z,101381.94
2022-07-27T22:49:45.786Z,101377.47
2022-07-27T22:52:55.976Z,101381.94
2022-07-27T22:55:31.393Z,101377.25
2022-07-27T22:58:38.642Z,101377.59
2022-07-27T23:01:53.921Z,101371.94
2022-07-27T23:07:36.441Z,101368.06
2022-07-27T23:11:06.472Z,101359.84
2022-07-27T23:13:58.616Z,101358.13
2022-07-27T23:16:39.575Z,101354.78
2022-07-27T23:19:42.050Z,101360.47
2022-07-27T23:22:26.103Z,101358.53
2022-07-27T23:25:10.719Z,101359.25
2022-07-27T23:28:04.051Z,101360.94
2022-07-27T23:30:51.748Z,101354.63
2022-07-27T23:33:41.167Z,101352.50
2022-07-27T23:39:46.208Z,101344.16
2022-07-27T23:42:25.118Z,101342.91
2022-07-27T23:45:02.022Z,101341.22
2022-07-27T23:47:46.446Z,101340.81
2022-07-27T23:50:35.573Z,101334.56
2022-07-27T23:53:33.348Z,101339.88
2022-07-27T23:56:19.657Z,101338.75
2022-07-27T23:59:04.247Z,101329.81
